Time;durP1;ratioP1;P1;durP2;ratioP2;P2;SDS_P1;SDS_P2;PMS_P1;PMS_P2;Temp;Humidity;BMP_temperature;BMP_pressure;BME280_temperature;BME280_humidity;BME280_pressure;Samples;Min_cycle;Max_cycle;Signal;HPM_P1;HPM_P2
2021/03/14 12:57:39;;;;;;;3.58;0.80;;;;;;;;;;5068303;28;20483;-74
2021/03/14 13:00:09;;;;;;;2.40;0.90;;;;;;;;;;5068370;28;20033;-75
2021/03/14 13:02:36;;;;;;;2.75;0.68;;;;;;;;;;5067905;28;20013;-75
2021/03/14 13:05:03;;;;;;;1.45;0.55;;;;;;;;;;5068658;28;20362;-74
2021/03/14 13:07:29;;;;;;;3.10;0.70;;;;;;;;;;5058396;28;20059;-74
2021/03/14 13:09:55;;;;;;;1.10;0.55;;;;;;;;;;5048261;28;20112;-74
2021/03/14 13:12:21;;;;;;;3.15;0.60;;;;;;;;;;5047934;28;20040;-75
2021/03/14 13:14:47;;;;;;;1.48;0.45;;;;;;;;;;5052144;28;20029;-76
2021/03/14 13:17:13;;;;;;;2.33;0.95;;;;;;;;;;5068965;28;20123;-75
2021/03/14 13:19:39;;;;;;;3.80;0.98;;;;;;;;;;5051706;28;20056;-75
2021/03/14 13:22:05;;;;;;;1.35;0.98;;;;;;;;;;5047629;28;20029;-75
2021/03/14 13:24:31;;;;;;;3.45;0.70;;;;;;;;;;5047917;28;20032;-74
2021/03/14 13:26:57;;;;;;;2.17;0.68;;;;;;;;;;5048208;28;20033;-75
2021/03/14 13:29:23;;;;;;;2.10;1.00;;;;;;;;;;5047182;28;20029;-75
2021/03/14 13:31:49;;;;;;;2.47;0.82;;;;;;;;;;5050018;28;20025;-75
2021/03/14 13:34:15;;;;;;;3.50;1.15;;;;;;;;;;5066717;28;20056;-75
2021/03/14 13:36:41;;;;;;;2.20;0.95;;;;;;;;;;5046432;28;20402;-75
2021/03/14 13:39:07;;;;;;;2.83;1.15;;;;;;;;;;5047466;28;20017;-75
2021/03/14 13:41:33;;;;;;;3.03;0.70;;;;;;;;;;5047598;28;20557;-75
2021/03/14 13:44:00;;;;;;;2.50;1.00;;;;;;;;;;5049232;28;20029;-77
2021/03/14 13:46:26;;;;;;;3.50;1.05;;;;;;;;;;5063481;28;20032;-77
2021/03/14 13:48:52;;;;;;;2.30;1.30;;;;;;;;;;5062445;28;20041;-77
2021/03/14 13:51:18;;;;;;;3.25;0.90;;;;;;;;;;5051896;28;20032;-77
2021/03/14 13:53:44;;;;;;;3.78;1.15;;;;;;;;;;5051040;28;20029;-77
2021/03/14 13:56:10;;;;;;;3.28;1.17;;;;;;;;;;5050537;28;20469;-75
2021/03/14 13:58:37;;;;;;;7.18;2.15;;;;;;;;;;5050845;28;20025;-75
2021/03/14 14:01:04;;;;;;;2.38;1.05;;;;;;;;;;5048730;28;20021;-77
2021/03/14 14:03:30;;;;;;;1.70;1.00;;;;;;;;;;5048641;28;20150;-77
2021/03/14 14:05:56;;;;;;;8.18;3.88;;;;;;;;;;5030414;28;20082;-76
2021/03/14 14:08:22;;;;;;;2.92;1.05;;;;;;;;;;5037318;28;20096;-76
2021/03/14 14:10:48;;;;;;;0.98;0.70;;;;;;;;;;5035066;28;20034;-77
2021/03/14 14:13:14;;;;;;;2.63;0.77;;;;;;;;;;5035099;28;20030;-76
2021/03/14 14:15:40;;;;;;;3.15;0.90;;;;;;;;;;5019160;28;20034;-76
2021/03/14 14:18:07;;;;;;;1.20;0.85;;;;;;;;;;5035239;28;20552;-75
2021/03/14 14:20:35;;;;;;;1.85;0.65;;;;;;;;;;5036456;28;20090;-76
2021/03/14 14:23:01;;;;;;;1.23;0.77;;;;;;;;;;5037116;28;20021;-76
2021/03/14 14:25:28;;;;;;;1.02;0.70;;;;;;;;;;5036593;28;20024;-75
2021/03/14 14:27:57;;;;;;;1.95;0.70;;;;;;;;;;5022660;28;20080;-76
2021/03/14 14:30:23;;;;;;;0.95;0.85;;;;;;;;;;5043422;28;20076;-76
2021/03/14 14:32:49;;;;;;;2.10;0.88;;;;;;;;;;5057902;28;20115;-75
2021/03/14 14:35:15;;;;;;;1.15;0.70;;;;;;;;;;5040185;28;20029;-77
2021/03/14 14:37:41;;;;;;;1.67;1.00;;;;;;;;;;5038223;28;20140;-75
2021/03/14 14:40:08;;;;;;;2.72;0.80;;;;;;;;;;5042817;28;20034;-77
2021/03/14 14:42:34;;;;;;;2.97;1.10;;;;;;;;;;5026120;28;20071;-75
2021/03/14 14:45:00;;;;;;;1.35;0.88;;;;;;;;;;5039121;28;20521;-76
2021/03/14 14:47:26;;;;;;;1.35;0.90;;;;;;;;;;5043650;28;20052;-77
2021/03/14 14:49:52;;;;;;;2.63;1.20;;;;;;;;;;5043148;28;20048;-76
2021/03/14 14:52:18;;;;;;;3.08;1.38;;;;;;;;;;5044561;28;20064;-77
2021/03/14 14:54:44;;;;;;;3.22;1.17;;;;;;;;;;5042956;28;20036;-75
2021/03/14 14:57:10;;;;;;;1.98;1.08;;;;;;;;;;5047192;28;20033;-76
2021/03/14 14:59:36;;;;;;;2.22;1.10;;;;;;;;;;5048404;28;20029;-74
2021/03/14 15:02:03;;;;;;;2.22;1.10;;;;;;;;;;5041956;28;20037;-76
2021/03/14 15:04:29;;;;;;;1.77;0.90;;;;;;;;;;5043474;28;20037;-77
2021/03/14 15:06:55;;;;;;;0.70;0.70;;;;;;;;;;5044235;28;20044;-77
2021/03/14 15:09:21;;;;;;;1.83;0.85;;;;;;;;;;5026356;28;20029;-76
2021/03/14 15:11:47;;;;;;;5.93;1.40;;;;;;;;;;5037934;28;20025;-77
2021/03/14 15:14:13;;;;;;;1.65;1.25;;;;;;;;;;5040759;28;20026;-76
2021/03/14 15:16:39;;;;;;;1.25;0.85;;;;;;;;;;5021308;28;20033;-77
2021/03/14 15:19:06;;;;;;;3.10;1.50;;;;;;;;;;5036817;28;20022;-77
2021/03/14 15:21:32;;;;;;;2.13;1.20;;;;;;;;;;5037685;28;20026;-77
2021/03/14 15:23:59;;;;;;;1.70;1.30;;;;;;;;;;5038554;28;20482;-77
2021/03/14 15:26:25;;;;;;;1.70;1.15;;;;;;;;;;5033308;28;20036;-77
2021/03/14 15:28:51;;;;;;;3.10;1.60;;;;;;;;;;5037309;28;20079;-77
2021/03/14 15:31:17;;;;;;;3.17;2.05;;;;;;;;;;5033691;28;20037;-77
2021/03/14 15:33:44;;;;;;;3.13;1.98;;;;;;;;;;5036915;28;20041;-76
2021/03/14 15:36:10;;;;;;;1.77;1.27;;;;;;;;;;5037132;28;20045;-76
2021/03/14 15:38:36;;;;;;;2.38;1.45;;;;;;;;;;5035830;28;20021;-76
2021/03/14 15:41:02;;;;;;;2.53;1.30;;;;;;;;;;5034935;28;20079;-76
2021/03/14 15:43:28;;;;;;;2.47;1.52;;;;;;;;;;5033834;28;20049;-76
2021/03/14 15:45:54;;;;;;;2.65;1.55;;;;;;;;;;5033869;28;20036;-76
2021/03/14 15:48:20;;;;;;;2.53;1.67;;;;;;;;;;5016013;28;20037;-76
2021/03/14 15:50:46;;;;;;;2.58;1.90;;;;;;;;;;5034579;28;20034;-77
2021/03/14 15:53:12;;;;;;;2.85;2.00;;;;;;;;;;5032894;28;20046;-77
2021/03/14 15:55:38;;;;;;;3.60;1.58;;;;;;;;;;5032602;28;20457;-76
2021/03/14 15:58:06;;;;;;;2.97;1.48;;;;;;;;;;5035293;28;20025;-74
2021/03/14 16:00:32;;;;;;;3.05;1.63;;;;;;;;;;5032635;28;20032;-77
2021/03/14 16:02:58;;;;;;;1.98;1.40;;;;;;;;;;5032273;28;20021;-77
2021/03/14 16:05:24;;;;;;;1.90;1.27;;;;;;;;;;5033661;28;20033;-77
2021/03/14 16:07:50;;;;;;;3.10;1.67;;;;;;;;;;5033014;28;20085;-77
2021/03/14 16:10:16;;;;;;;1.80;1.30;;;;;;;;;;5032249;28;20033;-77
2021/03/14 16:12:42;;;;;;;2.08;1.30;;;;;;;;;;5032246;28;20029;-77
2021/03/14 16:15:08;;;;;;;2.08;1.10;;;;;;;;;;5049282;28;20036;-77
2021/03/14 16:17:35;;;;;;;3.03;1.52;;;;;;;;;;5052955;28;20041;-77
2021/03/14 16:20:01;;;;;;;3.15;1.73;;;;;;;;;;5052490;28;20021;-76
2021/03/14 16:22:27;;;;;;;3.08;1.63;;;;;;;;;;5051470;28;20028;-75
2021/03/14 16:24:53;;;;;;;3.53;1.65;;;;;;;;;;5049854;28;20102;-75
2021/03/14 16:27:19;;;;;;;2.33;1.50;;;;;;;;;;5045688;28;20056;-75
2021/03/14 16:29:45;;;;;;;3.42;1.70;;;;;;;;;;5030825;28;20026;-75
2021/03/14 16:32:12;;;;;;;3.40;1.65;;;;;;;;;;5028707;28;20036;-75
2021/03/14 16:34:38;;;;;;;3.25;1.58;;;;;;;;;;5030191;28;20037;-75
2021/03/14 16:37:04;;;;;;;4.65;1.95;;;;;;;;;;5030604;28;20025;-76
2021/03/14 16:39:31;;;;;;;3.80;1.80;;;;;;;;;;5030720;28;20036;-76
2021/03/14 16:41:57;;;;;;;4.18;1.92;;;;;;;;;;5030224;28;20028;-75
2021/03/14 16:44:23;;;;;;;3.53;1.50;;;;;;;;;;5037894;28;20057;-76
2021/03/14 16:46:49;;;;;;;3.78;1.75;;;;;;;;;;5030892;28;20457;-76
2021/03/14 16:49:15;;;;;;;3.63;1.92;;;;;;;;;;5030426;28;20112;-76
2021/03/14 16:51:41;;;;;;;3.75;2.10;;;;;;;;;;5030113;28;20422;-76
2021/03/14 16:54:07;;;;;;;4.38;2.50;;;;;;;;;;5030950;28;20044;-76
2021/03/14 16:56:34;;;;;;;3.78;2.33;;;;;;;;;;5030464;28;20037;-76
2021/03/14 16:59:00;;;;;;;4.43;2.33;;;;;;;;;;5029632;28;20118;-78
2021/03/14 17:01:26;;;;;;;4.28;2.58;;;;;;;;;;5010609;28;20022;-76
2021/03/14 17:03:52;;;;;;;4.70;2.22;;;;;;;;;;5016948;28;20030;-75
2021/03/14 17:06:18;;;;;;;3.70;1.90;;;;;;;;;;5030701;28;20544;-76
2021/03/14 17:08:44;;;;;;;5.57;2.65;;;;;;;;;;5021494;28;20037;-73
2021/03/14 17:11:10;;;;;;;5.47;2.33;;;;;;;;;;5012967;28;20029;-75
2021/03/14 17:13:38;;;;;;;4.47;2.65;;;;;;;;;;5030070;28;20038;-76
2021/03/14 17:16:04;;;;;;;4.43;2.65;;;;;;;;;;5025302;28;20026;-76
2021/03/14 17:18:30;;;;;;;7.18;3.38;;;;;;;;;;5038279;28;20389;-76
2021/03/14 17:20:56;;;;;;;7.40;3.10;;;;;;;;;;5029144;28;20021;-75
2021/03/14 17:23:22;;;;;;;8.57;3.97;;;;;;;;;;5028896;28;20097;-75
2021/03/14 17:25:49;;;;;;;8.07;4.10;;;;;;;;;;5030374;28;20032;-76
2021/03/14 17:28:15;;;;;;;3.78;2.63;;;;;;;;;;5029287;28;20025;-75
2021/03/14 17:30:41;;;;;;;5.22;2.63;;;;;;;;;;5025776;28;20049;-75
2021/03/14 17:33:07;;;;;;;5.60;2.70;;;;;;;;;;5029590;28;20498;-75
2021/03/14 17:35:34;;;;;;;6.35;2.60;;;;;;;;;;5034301;28;20029;-75
2021/03/14 17:38:00;;;;;;;4.63;2.30;;;;;;;;;;5050157;28;20332;-75
2021/03/14 17:40:26;;;;;;;4.93;2.72;;;;;;;;;;5050505;28;20415;-76
2021/03/14 17:42:52;;;;;;;6.43;2.95;;;;;;;;;;5032625;28;20033;-76
2021/03/14 17:45:18;;;;;;;10.57;5.70;;;;;;;;;;5032505;28;20047;-75
2021/03/14 17:47:45;;;;;;;7.32;3.78;;;;;;;;;;5032460;28;20029;-76
2021/03/14 17:50:11;;;;;;;5.85;3.88;;;;;;;;;;5032178;28;20022;-75
2021/03/14 17:52:37;;;;;;;4.85;2.67;;;;;;;;;;5032087;28;20494;-73
2021/03/14 17:55:03;;;;;;;5.75;2.10;;;;;;;;;;5054536;28;20033;-75
2021/03/14 17:57:29;;;;;;;3.17;2.20;;;;;;;;;;5053427;28;20474;-74
2021/03/14 17:59:55;;;;;;;4.63;2.88;;;;;;;;;;5038988;28;20124;-75
2021/03/14 18:02:21;;;;;;;4.65;2.10;;;;;;;;;;5032171;28;20021;-75
2021/03/14 18:04:47;;;;;;;7.13;2.65;;;;;;;;;;5030830;28;20025;-73
2021/03/14 18:07:14;;;;;;;5.50;2.08;;;;;;;;;;5031469;28;20029;-74
2021/03/14 18:09:41;;;;;;;3.30;2.10;;;;;;;;;;5033352;28;20480;-74
2021/03/14 18:12:08;;;;;;;6.25;2.17;;;;;;;;;;5032869;28;20022;-73
2021/03/14 18:14:34;;;;;;;4.60;2.30;;;;;;;;;;5033552;28;20072;-74
2021/03/14 18:17:00;;;;;;;2.92;1.98;;;;;;;;;;5033493;28;20029;-73
2021/03/14 18:19:26;;;;;;;3.80;2.03;;;;;;;;;;5032938;28;20056;-73
2021/03/14 18:21:52;;;;;;;4.70;2.30;;;;;;;;;;5033850;28;20032;-74
2021/03/14 18:24:18;;;;;;;4.35;2.05;;;;;;;;;;5033218;28;20017;-74
2021/03/14 18:26:44;;;;;;;6.45;2.35;;;;;;;;;;5032119;28;20029;-74
2021/03/14 18:29:10;;;;;;;4.43;2.03;;;;;;;;;;5035100;28;20033;-74
2021/03/14 18:31:36;;;;;;;4.93;2.47;;;;;;;;;;5052399;28;20021;-74
2021/03/14 18:34:02;;;;;;;3.33;2.00;;;;;;;;;;5050137;28;20040;-74
2021/03/14 18:36:29;;;;;;;4.13;1.48;;;;;;;;;;5031932;28;20397;-74
2021/03/14 18:38:55;;;;;;;3.60;1.60;;;;;;;;;;5034307;28;20509;-73
2021/03/14 18:41:21;;;;;;;3.70;1.60;;;;;;;;;;5040450;28;20100;-73
2021/03/14 18:43:47;;;;;;;2.88;1.50;;;;;;;;;;5027193;28;20190;-74
2021/03/14 18:46:13;;;;;;;4.55;1.67;;;;;;;;;;5032668;28;20688;-74
2021/03/14 18:48:39;;;;;;;2.55;1.50;;;;;;;;;;5027445;28;20033;-77
2021/03/14 18:51:05;;;;;;;2.75;1.42;;;;;;;;;;5028145;28;20037;-77
2021/03/14 18:53:31;;;;;;;2.67;1.55;;;;;;;;;;5031832;28;20135;-75
